Terminal Aerodrome Forecast
Issued by NWS Greer, SC

Home | Current Version | Previous Version | Text Only | Print | Product List | Glossary On
Versions: 1 2 3 4 5 6 7 8 9 10 11 12 13 14 15
000
FTUS42 KGSP 010821 AAA
TAFGSP
TAF AMD
KGSP 010821Z 0108/0206 03006KT P6SM VCSH SCT003 OVC009
      TEMPO 0109/0112 3SM TSRA OVC006CB
     FM011500 19010KT P6SM OVC015
     FM011800 20012G18KT P6SM BKN030 PROB30 0118/0124 4SM -TSRA
      OVC025CB
     FM020000 22005KT P6SM BKN050=

USA.gov is the U.S. government's official web portal to all federal, state and local government web resources and services.